TimeEDT,TemperatureF,Dew PointF,Humidity,Sea Level PressureIn,VisibilityMPH,Wind Direction,Wind SpeedMPH,Gust SpeedMPH,PrecipitationIn,Events,Conditions,WindDirDegrees,DateUTC
12:58 AM,41.5,29.3,62,30.25,10.0,Calm,Calm,-,N/A,,Clear,30,2013-03-11 04:58:00
1:58 AM,39.2,29.1,67,30.25,10.0,NNE,2.3,-,N/A,,Clear,30,2013-03-11 05:58:00
2:58 AM,36.9,29.5,75,30.22,10.0,NE,2.3,-,N/A,,Clear,50,2013-03-11 06:58:00
3:58 AM,35.4,29.1,78,30.20,10.0,NNE,3.5,-,N/A,,Clear,20,2013-03-11 07:58:00
4:58 AM,37.2,30.0,75,30.19,10.0,NE,1.2,-,N/A,,Clear,50,2013-03-11 08:58:00
5:58 AM,37.4,31.6,80,30.18,10.0,ENE,3.5,-,N/A,,Partly Cloudy,60,2013-03-11 09:58:00
6:58 AM,38.1,33.6,84,30.17,10.0,NE,3.5,-,N/A,,Scattered Clouds,50,2013-03-11 10:58:00
7:58 AM,39.4,34.7,83,30.18,10.0,NE,2.3,-,N/A,,Partly Cloudy,50,2013-03-11 11:58:00
8:58 AM,43.9,39.2,84,30.18,10.0,NE,3.5,-,N/A,,Clear,50,2013-03-11 12:58:00
9:58 AM,53.2,47.3,80,30.16,10.0,Variable,4.6,-,N/A,,Clear,0,2013-03-11 13:58:00
10:58 AM,58.6,48.2,68,30.15,10.0,Variable,6.9,-,N/A,,Clear,0,2013-03-11 14:58:00
11:58 AM,64.2,49.1,58,30.13,10.0,South,11.5,-,N/A,,Scattered Clouds,180,2013-03-11 15:58:00
12:58 PM,66.7,48.9,53,30.11,10.0,South,9.2,-,N/A,,Mostly Cloudy,190,2013-03-11 16:58:00
1:58 PM,67.6,48.7,51,30.09,10.0,South,10.4,18.4,N/A,,Mostly Cloudy,190,2013-03-11 17:58:00
2:58 PM,69.4,48.9,48,30.05,10.0,South,9.2,-,N/A,,Mostly Cloudy,180,2013-03-11 18:58:00
3:58 PM,68.0,51.3,55,30.01,10.0,SSE,9.2,-,N/A,,Mostly Cloudy,150,2013-03-11 19:58:00
4:58 PM,68.0,51.6,56,29.99,10.0,South,9.2,19.6,N/A,,Mostly Cloudy,170,2013-03-11 20:58:00
5:11 PM,68.0,51.8,56,29.98,10.0,South,12.7,17.3,N/A,Rain,Light Rain,190,2013-03-11 21:11:00
5:20 PM,68.0,51.8,56,29.99,10.0,South,10.4,23.0,N/A,,Mostly Cloudy,170,2013-03-11 21:20:00
5:58 PM,66.7,53.1,61,29.99,10.0,SSE,6.9,16.1,0.00,,Mostly Cloudy,160,2013-03-11 21:58:00
6:58 PM,65.7,53.1,64,29.98,10.0,South,11.5,19.6,N/A,,Partly Cloudy,170,2013-03-11 22:58:00
7:58 PM,64.2,52.9,67,29.97,10.0,South,9.2,20.7,N/A,,Mostly Cloudy,180,2013-03-11 23:58:00
8:58 PM,63.3,53.1,69,29.98,10.0,Variable,6.9,-,N/A,,Mostly Cloudy,0,2013-03-12 00:58:00
9:58 PM,62.6,53.6,72,29.97,10.0,Variable,6.9,-,N/A,,Mostly Cloudy,0,2013-03-12 01:58:00
10:58 PM,61.9,53.6,74,29.97,10.0,Variable,5.8,-,N/A,,Mostly Cloudy,0,2013-03-12 02:58:00
11:58 PM,61.7,54.3,77,29.96,10.0,SSE,5.8,-,N/A,,Mostly Cloudy,150,2013-03-12 03:58:00